Time;durP1;ratioP1;P1;durP2;ratioP2;P2;SDS_P1;SDS_P2;PMS_P1;PMS_P2;Temp;Humidity;BMP_temperature;BMP_pressure;BME280_temperature;BME280_humidity;BME280_pressure;Samples;Min_cycle;Max_cycle;Signal;HPM_P1;HPM_P2
2023/07/08 00:00:17;;;;;;;7.35;4.57;;;;;;;19.08;84.62;101772.72;5057602;28;20437;-79
2023/07/08 00:02:43;;;;;;;7.15;4.20;;;;;;;19.21;83.52;101764.50;5059913;28;20032;-79
2023/07/08 00:05:10;;;;;;;6.57;4.68;;;;;;;19.21;83.97;101753.97;5062576;28;20423;-79
2023/07/08 00:07:37;;;;;;;6.85;4.22;;;;;;;19.18;83.76;101765.34;5059267;28;20040;-80
2023/07/08 00:10:09;;;;;;;6.28;4.25;;;;;;;19.15;83.82;101760.50;5064862;28;20020;-79
2023/07/08 00:12:34;;;;;;;4.80;3.83;;;;;;;18.99;85.31;101763.84;5073190;28;20477;-79
2023/07/08 00:15:00;;;;;;;6.40;4.70;;;;;;;19.07;84.61;101760.53;5046197;28;20032;-80
2023/07/08 00:17:25;;;;;;;7.38;4.40;;;;;;;18.98;85.33;101750.88;5060019;28;20032;-79
2023/07/08 00:19:54;;;;;;;6.63;4.30;;;;;;;18.98;84.73;101746.00;5060823;28;20048;-79
2023/07/08 00:22:19;;;;;;;4.35;3.75;;;;;;;19.12;84.09;101745.13;5060117;28;20123;-79
2023/07/08 00:24:44;;;;;;;6.88;4.50;;;;;;;19.00;84.34;101748.44;5058456;28;20441;-80
2023/07/08 00:27:12;;;;;;;7.65;4.47;;;;;;;18.95;84.88;101744.00;5064683;28;20593;-80
2023/07/08 00:29:37;;;;;;;7.55;4.88;;;;;;;18.96;83.97;101745.63;5060432;28;20039;-80
2023/07/08 00:32:10;;;;;;;6.10;4.45;;;;;;;18.84;85.46;101738.38;5060380;28;20628;-80
2023/07/08 00:34:36;;;;;;;7.53;4.75;;;;;;;18.74;86.11;101753.44;5061577;28;20141;-80
2023/07/08 00:37:04;;;;;;;7.47;4.40;;;;;;;18.85;84.93;101745.69;5063426;28;20431;-80
2023/07/08 00:39:30;;;;;;;9.18;4.70;;;;;;;18.71;86.02;101744.94;5057076;28;20668;-80
2023/07/08 00:41:56;;;;;;;8.85;5.10;;;;;;;18.80;85.15;101739.63;5060705;28;20094;-80
2023/07/08 00:44:21;;;;;;;7.90;4.75;;;;;;;18.66;86.46;101740.50;5079888;28;20044;-79
2023/07/08 00:46:58;;;;;;;7.68;4.90;;;;;;;18.71;85.94;101739.28;5056279;28;20033;-79
2023/07/08 00:49:42;;;;;;;7.55;5.53;;;;;;;18.63;86.67;101730.78;5058869;28;20399;-80
2023/07/08 00:52:20;;;;;;;6.95;4.60;;;;;;;18.59;86.68;101734.88;5073905;28;20039;-80
2023/07/08 00:54:49;;;;;;;7.88;5.00;;;;;;;18.63;86.52;101735.66;5075676;28;20028;-79
2023/07/08 00:57:15;;;;;;;8.73;5.63;;;;;;;18.63;85.37;101735.66;5050330;28;20071;-79
2023/07/08 01:00:09;;;;;;;6.80;4.63;;;;;;;18.53;86.80;101730.84;5061288;28;20136;-79
2023/07/08 01:02:42;;;;;;;6.32;4.65;;;;;;;18.64;85.45;101728.78;5061432;28;20031;-79
2023/07/08 01:05:16;;;;;;;8.40;5.07;;;;;;;18.64;86.22;101731.63;5060090;28;20036;-79
2023/07/08 01:07:45;;;;;;;7.10;4.80;;;;;;;18.46;87.85;101726.81;5062509;28;20122;-80
2023/07/08 01:10:17;;;;;;;6.82;5.13;;;;;;;18.52;86.84;101723.56;5061440;28;20062;-80
2023/07/08 01:12:48;;;;;;;7.78;4.55;;;;;;;18.54;86.52;101709.78;5061134;28;20443;-80
2023/07/08 01:15:14;;;;;;;8.30;4.78;;;;;;;18.48;86.87;101718.72;5059560;28;20764;-79
2023/07/08 01:17:40;;;;;;;8.95;4.30;;;;;;;18.65;85.57;101721.88;5071789;28;20043;-80
2023/07/08 01:20:09;;;;;;;11.82;5.30;;;;;;;18.32;87.47;101726.91;5062787;28;20053;-79
2023/07/08 01:22:36;;;;;;;8.95;5.28;;;;;;;18.40;86.79;101722.78;5056167;28;20028;-79
2023/07/08 01:25:03;;;;;;;8.60;4.90;;;;;;;18.47;86.19;101717.09;5060844;28;20016;-79
2023/07/08 01:27:32;;;;;;;7.78;4.30;;;;;;;18.53;85.26;101711.00;5059162;28;20111;-79
2023/07/08 01:29:59;;;;;;;7.25;4.70;;;;;;;18.63;85.92;101699.59;5057932;28;20031;-80
2023/07/08 01:32:32;;;;;;;9.02;5.18;;;;;;;18.64;85.83;101708.94;5062677;28;20503;-80
2023/07/08 01:35:01;;;;;;;7.97;5.18;;;;;;;18.73;85.14;101711.31;5056261;28;20090;-79
2023/07/08 01:37:51;;;;;;;8.95;5.32;;;;;;;18.63;84.46;101718.63;5060588;28;20028;-80
2023/07/08 01:40:30;;;;;;;8.85;5.05;;;;;;;18.66;84.51;101706.50;5061983;28;20544;-79
2023/07/08 01:42:56;;;;;;;13.55;4.55;;;;;;;18.56;85.38;101708.16;5059177;28;20020;-79
2023/07/08 01:45:25;;;;;;;7.10;5.35;;;;;;;18.26;87.17;101708.72;5058221;28;20496;-80
2023/07/08 01:47:52;;;;;;;8.02;5.00;;;;;;;18.45;85.78;101696.88;5044711;28;20040;-80
2023/07/08 01:50:18;;;;;;;8.52;5.82;;;;;;;18.47;85.47;101694.44;5050856;28;20133;-79
2023/07/08 01:52:44;;;;;;;6.53;4.40;;;;;;;18.29;86.30;101693.69;5045950;28;20036;-79
2023/07/08 01:55:09;;;;;;;10.30;5.28;;;;;;;18.18;87.05;101681.63;5055808;28;20051;-80
2023/07/08 01:57:35;;;;;;;7.15;5.38;;;;;;;18.23;86.17;101684.00;5059666;28;20145;-79
2023/07/08 02:00:01;;;;;;;8.27;5.38;;;;;;;18.15;86.83;101676.75;5060539;28;20035;-80
2023/07/08 02:02:26;;;;;;;9.20;4.80;;;;;;;18.19;87.16;101677.56;5060804;28;20131;-79
2023/07/08 02:04:51;;;;;;;11.07;5.30;;;;;;;18.16;86.83;101684.06;5060030;28;20024;-79
2023/07/08 02:07:17;;;;;;;9.35;5.53;;;;;;;18.22;86.66;101671.88;5059065;28;20024;-79
2023/07/08 02:09:43;;;;;;;6.03;4.18;;;;;;;18.31;84.82;101668.59;5058574;28;20028;-79
2023/07/08 02:12:08;;;;;;;7.10;4.93;;;;;;;18.29;86.18;101665.38;5061286;28;20033;-79
2023/07/08 02:14:34;;;;;;;11.75;5.90;;;;;;;18.29;85.01;101656.84;5070848;28;20536;-79
2023/07/08 02:16:59;;;;;;;7.95;5.35;;;;;;;18.26;85.44;101667.00;5057833;28;20024;-79
2023/07/08 02:19:25;;;;;;;5.38;4.70;;;;;;;18.29;84.78;101665.38;5060044;28;20584;-79
2023/07/08 02:21:51;;;;;;;6.57;4.75;;;;;;;18.22;85.75;101669.03;5061196;28;20041;-79
2023/07/08 02:24:17;;;;;;;8.65;5.70;;;;;;;18.20;86.10;101662.19;5060772;28;20392;-80
2023/07/08 02:26:42;;;;;;;6.32;4.55;;;;;;;18.41;84.22;101673.41;5058603;28;20032;-79
2023/07/08 02:29:08;;;;;;;8.13;4.40;;;;;;;18.42;83.76;101669.34;5062919;28;20476;-80
2023/07/08 02:31:33;;;;;;;9.18;4.95;;;;;;;18.39;83.94;101658.03;5055263;28;20040;-79
2023/07/08 02:34:01;;;;;;;8.35;5.15;;;;;;;18.35;84.05;101657.25;5063048;28;20107;-79
2023/07/08 02:36:27;;;;;;;10.73;5.07;;;;;;;18.31;84.24;101656.47;5056421;28;20040;-80
2023/07/08 02:38:53;;;;;;;8.43;5.80;;;;;;;18.35;83.60;101655.22;5052894;28;20059;-79
2023/07/08 02:41:18;;;;;;;9.25;6.07;;;;;;;18.16;86.63;101638.72;5067036;28;20070;-79
2023/07/08 02:43:44;;;;;;;9.60;5.80;;;;;;;18.28;84.19;101636.22;5049329;28;20037;-79
2023/07/08 02:46:10;;;;;;;11.80;6.00;;;;;;;18.02;86.65;101637.53;5063816;28;20230;-80
2023/07/08 02:48:35;;;;;;;11.85;5.47;;;;;;;18.17;85.10;101634.66;5051327;28;20272;-79
2023/07/08 02:51:02;;;;;;;10.77;5.97;;;;;;;18.01;85.86;101632.31;5050433;28;20024;-80
2023/07/08 02:53:28;;;;;;;8.82;5.82;;;;;;;17.86;86.94;101631.56;5056718;28;20036;-79
2023/07/08 02:55:53;;;;;;;7.15;5.57;;;;;;;17.77;87.02;101626.31;5055710;28;20024;-79
2023/07/08 02:58:19;;;;;;;10.63;5.15;;;;;;;17.82;86.40;101627.91;5052019;28;20036;-79
2023/07/08 03:00:44;;;;;;;11.00;6.18;;;;;;;17.83;86.31;101621.84;5049016;28;20124;-80
2023/07/08 03:03:09;;;;;;;9.52;5.50;;;;;;;18.03;84.50;101625.00;5050295;28;20032;-80
2023/07/08 03:05:38;;;;;;;8.60;5.75;;;;;;;18.03;84.66;101619.34;5050227;28;20038;-80
2023/07/08 03:08:03;;;;;;;9.95;6.13;;;;;;;17.79;86.42;101617.38;5062921;28;20028;-80
2023/07/08 03:10:29;;;;;;;8.48;5.38;;;;;;;17.87;85.59;101616.97;5052256;28;20024;-79
2023/07/08 03:12:54;;;;;;;7.60;5.70;;;;;;;17.65;87.43;101615.44;5052136;28;20032;-79
2023/07/08 03:15:19;;;;;;;8.57;5.53;;;;;;;17.76;86.41;101618.22;5050473;28;20078;-79
2023/07/08 03:17:45;;;;;;;10.48;6.35;;;;;;;17.82;86.48;101619.41;5064527;28;20977;-80
2023/07/08 03:20:11;;;;;;;9.45;5.95;;;;;;;17.67;87.97;101629.97;5052309;28;20072;-79
2023/07/08 03:22:37;;;;;;;10.68;5.75;;;;;;;17.60;88.50;101622.31;5060659;28;20075;-80
2023/07/08 03:25:02;;;;;;;11.02;6.20;;;;;;;17.59;87.55;101620.69;5049652;28;20068;-80
2023/07/08 03:27:28;;;;;;;8.55;5.05;;;;;;;17.57;87.94;101625.94;5053344;28;20039;-79
2023/07/08 03:29:53;;;;;;;9.05;6.05;;;;;;;17.37;89.62;101616.28;5050581;28;20039;-80
2023/07/08 03:32:19;;;;;;;7.05;6.32;;;;;;;17.45;89.24;101612.22;5052122;28;20036;-79
2023/07/08 03:34:44;;;;;;;11.75;6.38;;;;;;;17.37;89.41;101616.28;5049438;28;20047;-79
2023/07/08 03:37:10;;;;;;;7.82;5.95;;;;;;;17.54;88.30;101618.28;5045105;28;20116;-79
2023/07/08 03:39:35;;;;;;;7.85;5.78;;;;;;;17.63;87.00;101612.19;5047008;28;20130;-79
2023/07/08 03:42:01;;;;;;;8.73;5.18;;;;;;;17.69;86.89;101619.06;5048731;28;20032;-79
2023/07/08 03:44:27;;;;;;;8.82;5.78;;;;;;;17.48;88.52;101622.75;5044372;28;20505;-79
2023/07/08 03:46:52;;;;;;;7.57;5.35;;;;;;;17.68;86.65;101626.72;5057723;28;20020;-79
2023/07/08 03:49:22;;;;;;;7.70;5.00;;;;;;;17.62;87.22;101621.88;5045298;28;20028;-79
2023/07/08 03:51:48;;;;;;;10.40;5.95;;;;;;;17.53;89.25;101619.50;5064443;28;20028;-79
2023/07/08 03:54:15;;;;;;;11.23;6.75;;;;;;;17.58;88.54;101630.41;5044604;28;20036;-79
2023/07/08 03:56:41;;;;;;;7.93;5.82;;;;;;;17.32;89.39;101619.53;5046819;28;20036;-80
2023/07/08 03:59:07;;;;;;;9.23;5.70;;;;;;;17.35;90.70;101625.19;5050443;28;20106;-79
2023/07/08 04:01:32;;;;;;;10.77;6.43;;;;;;;17.36;89.82;101623.97;5048204;28;20167;-79
2023/07/08 04:03:59;;;;;;;10.35;6.00;;;;;;;17.19;90.83;101628.44;5051092;28;20115;-79
2023/07/08 04:06:25;;;;;;;7.60;5.80;;;;;;;17.19;90.66;101633.31;5050095;28;20649;-79
2023/07/08 04:08:52;;;;;;;8.93;6.25;;;;;;;17.35;89.77;101636.53;5047206;28;20043;-79
2023/07/08 04:11:22;;;;;;;7.18;5.78;;;;;;;17.12;92.00;101634.13;5047445;28;20518;-79
2023/07/08 04:13:48;;;;;;;8.80;6.15;;;;;;;17.29;90.30;101638.16;5042853;28;20138;-79
2023/07/08 04:16:23;;;;;;;11.02;6.10;;;;;;;17.25;91.22;101640.16;5037876;28;20028;-80
2023/07/08 04:18:53;;;;;;;8.30;6.13;;;;;;;17.21;90.86;101634.50;5045219;28;20045;-79
2023/07/08 04:21:19;;;;;;;9.55;6.43;;;;;;;17.20;91.27;101638.56;5049773;28;20508;-79
2023/07/08 04:23:45;;;;;;;7.57;5.57;;;;;;;17.15;91.51;101636.13;5065204;28;21569;-79
2023/07/08 04:26:10;;;;;;;11.95;6.90;;;;;;;17.22;91.81;101638.13;5045568;28;20044;-79
2023/07/08 04:28:36;;;;;;;10.25;6.35;;;;;;;17.15;92.85;101641.78;5049717;28;20441;-79
2023/07/08 04:31:01;;;;;;;9.10;5.97;;;;;;;17.13;93.13;101630.06;5044998;28;20031;-79
2023/07/08 04:33:27;;;;;;;10.63;6.35;;;;;;;17.19;91.97;101633.31;5047364;28;22334;-80
2023/07/08 04:35:54;;;;;;;9.63;6.55;;;;;;;17.22;93.73;101633.31;5057319;28;20430;-80
2023/07/08 04:38:24;;;;;;;9.60;5.97;;;;;;;17.14;93.27;101631.69;5058121;28;20027;-79
2023/07/08 04:40:51;;;;;;;10.45;7.63;;;;;;;17.20;93.62;101641.38;5048814;28;20431;-79
2023/07/08 04:43:18;;;;;;;8.30;5.85;;;;;;;17.30;92.53;101639.75;5052005;28;20636;-80
2023/07/08 04:45:47;;;;;;;9.32;6.03;;;;;;;17.16;94.08;101640.59;5038779;28;20153;-80
2023/07/08 04:48:15;;;;;;;9.73;7.32;;;;;;;16.94;95.40;101644.63;5043079;28;20044;-79
2023/07/08 04:50:46;;;;;;;10.82;6.72;;;;;;;17.17;94.12;101642.19;5045441;28;20035;-79
2023/07/08 04:53:12;;;;;;;10.73;5.95;;;;;;;17.17;93.02;101636.53;5054940;28;20062;-79
2023/07/08 04:55:41;;;;;;;10.73;6.45;;;;;;;17.14;94.04;101636.53;5058344;28;20066;-79
2023/07/08 04:58:07;;;;;;;10.40;6.82;;;;;;;17.07;94.07;101628.84;5050184;28;20507;-79
2023/07/08 05:00:32;;;;;;;9.73;6.15;;;;;;;17.20;94.09;101629.25;5053597;28;20039;-79
2023/07/08 05:02:57;;;;;;;12.20;6.60;;;;;;;17.11;93.66;101632.47;5055774;28;20036;-79
2023/07/08 05:05:23;;;;;;;9.63;6.18;;;;;;;17.23;94.45;101637.72;5049632;28;20032;-79
2023/07/08 05:07:49;;;;;;;9.15;5.82;;;;;;;17.20;93.71;101624.41;5048432;28;20032;-80
2023/07/08 05:10:15;;;;;;;8.90;6.55;;;;;;;17.27;93.75;101641.38;5057477;28;20032;-79
2023/07/08 05:12:42;;;;;;;8.57;6.82;;;;;;;17.44;93.40;101636.91;5059009;28;20086;-79
2023/07/08 05:15:08;;;;;;;9.02;6.25;;;;;;;17.53;92.09;101633.66;5052075;28;20041;-79
2023/07/08 05:17:33;;;;;;;10.70;6.15;;;;;;;17.45;91.14;101634.88;5055835;28;20037;-80
2023/07/08 05:20:00;;;;;;;13.73;6.18;;;;;;;17.42;93.67;101635.69;5048975;28;20053;-80
2023/07/08 05:22:27;;;;;;;9.50;6.25;;;;;;;17.43;93.04;101637.31;5054227;28;20566;-80
2023/07/08 05:24:55;;;;;;;10.63;6.75;;;;;;;17.53;92.41;101633.66;5048675;28;20488;-79
2023/07/08 05:27:21;;;;;;;8.88;6.00;;;;;;;17.62;90.16;101628.34;5070088;28;20024;-80
2023/07/08 05:29:47;;;;;;;13.27;7.60;;;;;;;17.53;92.42;101627.97;5048886;28;20027;-79
2023/07/08 05:32:12;;;;;;;9.82;5.95;;;;;;;17.71;91.11;101638.44;5051418;28;20064;-79
2023/07/08 05:34:38;;;;;;;9.57;6.07;;;;;;;17.77;90.91;101639.63;5050445;28;20040;-80
2023/07/08 05:37:03;;;;;;;10.68;6.25;;;;;;;17.74;90.48;101634.81;5051248;28;20055;-80
2023/07/08 05:39:30;;;;;;;13.02;6.63;;;;;;;17.74;91.98;101629.16;5050924;28;20053;-80
2023/07/08 05:41:56;;;;;;;10.68;6.50;;;;;;;17.87;89.24;101630.34;5045631;28;20839;-80
2023/07/08 05:44:22;;;;;;;8.40;6.35;;;;;;;18.00;89.31;101625.81;5066653;28;20035;-80
2023/07/08 05:46:47;;;;;;;10.00;7.15;;;;;;;18.01;90.55;101627.44;5062600;28;20459;-79
2023/07/08 05:49:13;;;;;;;9.02;5.88;;;;;;;17.99;90.35;101629.09;5050702;28;20082;-80
2023/07/08 05:51:38;;;;;;;8.10;5.65;;;;;;;18.04;89.00;101623.78;5056097;28;20388;-80
2023/07/08 05:54:03;;;;;;;9.93;6.38;;;;;;;18.09;89.09;101622.56;5046427;28;20040;-80
2023/07/08 05:56:30;;;;;;;7.45;5.38;;;;;;;18.20;89.49;101628.19;5048521;28;20032;-80
2023/07/08 05:58:56;;;;;;;11.10;6.78;;;;;;;18.18;89.96;101631.41;5050726;28;20403;-80
2023/07/08 06:01:21;;;;;;;9.68;6.57;;;;;;;18.19;89.70;101635.84;5048232;28;20115;-80
2023/07/08 06:03:47;;;;;;;6.90;5.57;;;;;;;18.18;88.62;101607.94;5058606;28;20037;-80
2023/07/08 06:06:12;;;;;;;9.68;6.90;;;;;;;18.32;87.57;101616.38;5051890;28;20034;-80
2023/07/08 06:08:38;;;;;;;7.18;5.57;;;;;;;18.46;89.09;101621.13;5051737;28;20048;-80
2023/07/08 06:11:04;;;;;;;8.68;6.20;;;;;;;18.44;89.67;101615.88;5048420;28;20443;-80
2023/07/08 06:13:29;;;;;;;7.45;5.80;;;;;;;18.56;88.10;101622.28;5046995;28;20642;-80
2023/07/08 06:15:54;;;;;;;8.65;5.97;;;;;;;18.60;89.16;101623.09;5041283;28;21076;-80
2023/07/08 06:18:20;;;;;;;8.70;6.10;;;;;;;18.77;85.98;101621.34;5052329;28;20037;-80
2023/07/08 06:20:57;;;;;;;9.20;6.40;;;;;;;18.85;86.20;101618.06;5057695;28;20075;-80
2023/07/08 06:23:23;;;;;;;9.75;6.03;;;;;;;18.88;86.45;101617.19;5053807;28;20020;-80
2023/07/08 06:25:48;;;;;;;9.75;6.97;;;;;;;18.93;85.75;101617.97;5046246;28;20033;-80
2023/07/08 06:28:14;;;;;;;10.30;7.03;;;;;;;18.97;85.70;101621.59;5047838;28;20047;-80
2023/07/08 06:30:43;;;;;;;9.82;6.75;;;;;;;19.03;85.77;101617.88;5047825;28;20028;-79
2023/07/08 06:33:09;;;;;;;9.40;6.32;;;;;;;19.06;86.63;101616.25;5049935;28;20119;-79
2023/07/08 06:35:34;;;;;;;9.60;6.60;;;;;;;19.21;85.24;101612.06;5048594;28;20069;-80
2023/07/08 06:38:00;;;;;;;11.45;6.68;;;;;;;19.33;85.94;101612.75;5058313;28;20044;-80
2023/07/08 06:40:25;;;;;;;8.20;5.70;;;;;;;19.37;86.50;101616.34;5046458;28;20111;-80
2023/07/08 06:42:50;;;;;;;9.82;5.90;;;;;;;19.45;84.81;101604.50;5068201;28;20492;-80
2023/07/08 06:45:16;;;;;;;10.10;6.07;;;;;;;19.64;85.08;101600.25;5048716;28;20064;-80
2023/07/08 06:47:41;;;;;;;12.93;5.72;;;;;;;19.68;84.15;101601.00;5050466;28;20068;-80
2023/07/08 06:50:07;;;;;;;10.02;5.70;;;;;;;19.77;83.03;101608.25;5050379;28;20066;-80
2023/07/08 06:52:35;;;;;;;8.77;5.75;;;;;;;19.97;81.04;101600.69;5054450;28;20036;-80
2023/07/08 06:55:01;;;;;;;9.82;5.30;;;;;;;20.03;81.90;101604.66;5049112;28;20036;-80
2023/07/08 06:57:27;;;;;;;8.05;5.63;;;;;;;20.12;82.27;101606.19;5051552;28;20021;-79
2023/07/08 06:59:52;;;;;;;7.72;5.90;;;;;;;20.30;80.24;101613.22;5072745;28;20244;-80
2023/07/08 07:02:19;;;;;;;7.20;5.60;;;;;;;20.32;78.89;101607.09;5056991;28;20028;-80
2023/07/08 07:04:45;;;;;;;7.03;5.03;;;;;;;20.43;78.75;101610.59;5057384;28;20032;-80
2023/07/08 07:07:11;;;;;;;8.77;5.78;;;;;;;20.60;78.33;101613.66;5058186;28;20378;-80
2023/07/08 07:09:36;;;;;;;9.38;5.38;;;;;;;20.57;77.98;101608.78;5063448;28;20028;-80
2023/07/08 07:12:02;;;;;;;5.47;4.40;;;;;;;20.70;78.94;101610.63;5062702;28;20036;-80
2023/07/08 07:14:27;;;;;;;8.38;5.65;;;;;;;20.80;76.98;101610.88;5055086;28;20468;-80
2023/07/08 07:16:53;;;;;;;6.10;4.88;;;;;;;20.87;77.66;101611.56;5060171;28;20089;-80
2023/07/08 07:19:18;;;;;;;7.80;4.93;;;;;;;20.93;78.38;101620.41;5060591;28;20048;-80
2023/07/08 07:21:43;;;;;;;7.47;4.97;;;;;;;21.08;76.69;101618.13;5057684;28;20036;-79
2023/07/08 07:24:09;;;;;;;8.35;4.93;;;;;;;21.30;75.11;101615.72;5057277;28;20028;-80
2023/07/08 07:26:36;;;;;;;8.38;5.88;;;;;;;21.35;74.00;101617.25;5061523;28;20148;-80
2023/07/08 07:29:02;;;;;;;7.10;4.63;;;;;;;21.47;74.52;101620.28;5059028;28;20036;-79
2023/07/08 07:31:27;;;;;;;7.10;4.78;;;;;;;21.57;72.75;101615.63;5057149;28;20374;-80
2023/07/08 07:33:53;;;;;;;7.45;4.88;;;;;;;21.82;71.87;101620.00;5053040;28;20141;-79
2023/07/08 07:36:18;;;;;;;5.60;4.93;;;;;;;21.89;71.57;101617.03;5061818;28;20032;-78
2023/07/08 07:38:43;;;;;;;8.20;4.63;;;;;;;21.77;73.03;101618.47;5048221;28;20120;-79
2023/07/08 07:41:10;;;;;;;6.90;4.82;;;;;;;21.98;70.47;101614.38;5057303;28;21134;-78
2023/07/08 07:43:36;;;;;;;5.82;4.30;;;;;;;21.93;72.31;101617.75;5057322;28;20028;-79
2023/07/08 07:46:02;;;;;;;7.68;5.18;;;;;;;22.22;69.77;101611.44;5057644;28;20032;-79
2023/07/08 07:48:28;;;;;;;5.75;3.92;;;;;;;22.43;68.57;101615.88;5057100;28;20024;-79
2023/07/08 07:50:53;;;;;;;5.38;3.38;;;;;;;22.22;69.08;101602.88;5055991;28;20047;-79
2023/07/08 07:53:18;;;;;;;6.68;4.22;;;;;;;22.42;67.62;101600.81;5061267;28;20027;-78
2023/07/08 07:55:44;;;;;;;7.45;3.97;;;;;;;22.67;66.36;101605.13;5053467;28;20039;-78
2023/07/08 07:58:11;;;;;;;8.82;4.70;;;;;;;22.80;66.93;101600.31;5054496;28;20025;-78
2023/07/08 08:00:39;;;;;;;6.43;4.20;;;;;;;23.02;67.34;101611.22;5053783;28;20460;-79
2023/07/08 08:03:05;;;;;;;7.68;4.63;;;;;;;22.89;68.71;101608.25;5050674;28;20024;-79
2023/07/08 08:05:30;;;;;;;7.50;4.10;;;;;;;23.01;66.40;101621.03;5070878;28;20028;-78
2023/07/08 08:07:55;;;;;;;5.75;4.57;;;;;;;23.09;65.22;101626.13;5059301;28;20134;-78
2023/07/08 08:10:21;;;;;;;5.32;4.07;;;;;;;22.71;68.67;101626.63;5053596;28;20021;-78
2023/07/08 08:12:50;;;;;;;5.63;4.30;;;;;;;22.63;69.67;101618.69;5072499;28;20032;-78
2023/07/08 08:15:16;;;;;;;13.63;9.07;;;;;;;22.96;69.63;101610.09;5046760;28;20028;-78
2023/07/08 08:17:41;;;;;;;5.90;4.18;;;;;;;23.26;67.29;101621.19;5069396;28;20036;-77
2023/07/08 08:20:08;;;;;;;9.57;6.15;;;;;;;23.33;67.08;101623.84;5079186;28;20386;-77
2023/07/08 08:22:33;;;;;;;5.03;4.07;;;;;;;23.78;63.80;101622.25;5058167;28;20035;-77
2023/07/08 08:24:59;;;;;;;5.57;4.05;;;;;;;23.93;65.39;101619.78;5054960;28;20051;-78
2023/07/08 08:27:24;;;;;;;5.95;3.95;;;;;;;24.27;64.95;101612.63;5080679;28;20115;-78
2023/07/08 08:29:49;;;;;;;4.70;3.65;;;;;;;24.36;64.21;101615.59;5061909;28;20392;-78
2023/07/08 08:32:15;;;;;;;6.70;4.05;;;;;;;24.25;63.47;101609.41;5060285;28;20037;-78
2023/07/08 08:34:40;;;;;;;4.85;3.78;;;;;;;24.28;64.99;101609.28;5061899;28;20520;-78
2023/07/08 08:37:06;;;;;;;7.80;4.97;;;;;;;24.44;64.14;101607.59;5062440;28;20024;-78
2023/07/08 08:39:31;;;;;;;4.65;3.83;;;;;;;24.35;63.87;101602.56;5063503;28;20061;-77
2023/07/08 08:41:57;;;;;;;4.50;4.03;;;;;;;24.67;63.95;101597.91;5063048;28;20020;-78
2023/07/08 08:44:35;;;;;;;5.50;4.50;;;;;;;24.74;63.61;101600.50;5056439;28;20028;-78
2023/07/08 08:47:15;;;;;;;6.13;4.10;;;;;;;24.88;58.56;101613.56;5059121;28;20133;-78
2023/07/08 08:49:50;;;;;;;5.57;3.97;;;;;;;25.07;63.06;101608.81;5059969;28;20037;-78
2023/07/08 08:52:16;;;;;;;8.05;4.15;;;;;;;24.61;63.58;101602.59;5060907;28;20037;-78
2023/07/08 08:54:43;;;;;;;9.00;4.32;;;;;;;24.80;63.09;101603.59;5063897;28;20067;-78
2023/07/08 08:57:22;;;;;;;4.97;3.88;;;;;;;25.02;63.61;101610.19;5064855;28;20071;-79
2023/07/08 08:59:54;;;;;;;5.65;4.07;;;;;;;24.93;62.69;101602.31;5066597;28;20391;-78
2023/07/08 09:02:37;;;;;;;5.55;4.10;;;;;;;24.78;62.45;101586.88;5063236;28;20028;-78
2023/07/08 09:05:08;;;;;;;6.15;4.13;;;;;;;25.08;62.78;101596.09;5059576;28;20478;-78
2023/07/08 09:08:11;;;;;;;5.57;4.10;;;;;;;24.88;65.99;101597.16;5066412;28;20040;-79
2023/07/08 09:10:48;;;;;;;6.18;4.13;;;;;;;25.58;59.74;101594.34;5062103;28;20522;-78
2023/07/08 09:13:32;;;;;;;5.05;3.70;;;;;;;25.42;61.37;101598.19;5066656;28;20032;-78
2023/07/08 09:16:07;;;;;;;5.97;4.18;;;;;;;25.41;63.49;101601.53;5057502;28;20526;-84
2023/07/08 09:18:42;;;;;;;7.32;4.15;;;;;;;25.64;63.03;101601.06;5063170;28;20485;-84
2023/07/08 09:21:19;;;;;;;5.75;4.10;;;;;;;25.66;63.45;101589.94;5064720;28;20081;-85
2023/07/08 09:23:47;;;;;;;6.97;4.13;;;;;;;26.00;58.47;101596.88;5082777;28;20087;-84
2023/07/08 09:26:24;;;;;;;7.30;4.30;;;;;;;26.10;58.93;101586.25;5065426;28;20108;-85
2023/07/08 09:28:49;;;;;;;6.43;4.32;;;;;;;26.19;59.61;101608.47;5067654;28;20042;-85
2023/07/08 09:31:27;;;;;;;6.18;4.32;;;;;;;26.66;57.90;101616.03;5071151;28;20033;-85
2023/07/08 09:34:06;;;;;;;4.68;3.92;;;;;;;26.59;57.05;101613.47;5068218;28;20105;-85
2023/07/08 09:36:32;;;;;;;5.65;3.63;;;;;;;26.70;56.39;101614.59;5056328;28;20036;-85
2023/07/08 09:38:59;;;;;;;5.60;4.32;;;;;;;26.60;57.74;101615.06;5065924;28;20405;-85
2023/07/08 09:41:35;;;;;;;8.27;4.90;;;;;;;26.96;54.42;101614.34;5054147;28;20025;-85
2023/07/08 09:44:28;;;;;;;5.13;3.90;;;;;;;26.89;56.22;101620.41;5056277;28;20729;-85
2023/07/08 09:46:58;;;;;;;4.93;3.78;;;;;;;26.98;54.71;101614.69;5062640;28;20048;-85
2023/07/08 09:49:34;;;;;;;9.90;4.18;;;;;;;26.94;57.08;101616.91;5062922;28;20024;-85
2023/07/08 09:52:00;;;;;;;7.38;3.72;;;;;;;27.22;56.20;101612.06;5061332;28;20048;-85
2023/07/08 09:54:27;;;;;;;5.90;4.15;;;;;;;27.59;52.99;101614.91;5067305;28;20028;-86
2023/07/08 09:57:24;;;;;;;5.20;4.13;;;;;;;27.78;52.55;101607.88;5063099;28;20032;-86
2023/07/08 09:59:58;;;;;;;6.93;4.18;;;;;;;27.66;53.13;101608.03;5058536;28;20123;-86
2023/07/08 10:02:37;;;;;;;6.53;4.30;;;;;;;27.72;53.43;101595.44;5062247;28;20033;-86
2023/07/08 10:05:20;;;;;;;6.07;4.05;;;;;;;27.87;51.03;101607.09;5064390;28;20437;-85
2023/07/08 10:07:46;;;;;;;8.18;4.50;;;;;;;27.98;51.54;101600.84;5075427;28;20063;-86
2023/07/08 10:10:18;;;;;;;4.72;3.92;;;;;;;28.01;50.96;101602.75;5078492;28;20040;-86
2023/07/08 10:13:22;;;;;;;14.27;4.03;;;;;;;28.13;50.38;101600.97;5070219;28;20089;-86
2023/07/08 10:15:56;;;;;;;5.10;4.40;;;;;;;28.30;49.88;101598.50;5061483;28;20070;-85
2023/07/08 10:18:27;;;;;;;7.45;4.20;;;;;;;28.20;49.91;101602.69;5064330;28;20151;-86
2023/07/08 10:21:06;;;;;;;6.47;4.82;;;;;;;28.55;48.76;101608.84;5085306;28;20028;-86
2023/07/08 10:23:50;;;;;;;4.78;4.05;;;;;;;28.84;48.05;101608.22;5065185;28;20039;-86
2023/07/08 10:26:31;;;;;;;6.22;4.00;;;;;;;28.41;50.26;101593.03;5059789;28;20039;-86
2023/07/08 10:29:35;;;;;;;8.83;4.80;;;;;;;29.00;48.78;101604.09;5067569;28;20032;-86
2023/07/08 10:32:32;;;;;;;6.95;5.10;;;;;;;28.84;46.43;101601.63;5062385;28;20548;-86
2023/07/08 10:35:13;;;;;;;5.07;4.20;;;;;;;28.91;47.98;101619.38;5057503;28;20053;-86
2023/07/08 10:38:00;;;;;;;5.80;4.68;;;;;;;29.02;47.54;101606.50;5063147;28;20035;-85
2023/07/08 10:41:12;;;;;;;5.55;3.95;;;;;;;29.34;45.87;101601.94;5060820;28;20115;-86
2023/07/08 10:43:57;;;;;;;8.57;4.82;;;;;;;29.35;45.34;101595.69;5048315;28;20064;-85
2023/07/08 10:46:47;;;;;;;8.85;4.88;;;;;;;29.47;45.75;101604.56;5074114;28;20509;-86
2023/07/08 10:49:16;;;;;;;6.50;4.55;;;;;;;29.51;46.51;101600.19;5063984;28;20581;-86
2023/07/08 10:52:16;;;;;;;6.07;4.43;;;;;;;29.67;44.93;101601.81;5058906;28;20048;-86
2023/07/08 10:55:06;;;;;;;8.32;4.43;;;;;;;29.73;45.35;101610.63;5057713;28;20029;-86
2023/07/08 10:57:58;;;;;;;5.07;4.10;;;;;;;29.64;45.80;101594.16;5058608;28;20036;-86
2023/07/08 11:00:32;;;;;;;9.80;4.53;;;;;;;29.58;45.31;101610.56;5059526;28;20033;-85
2023/07/08 11:03:26;;;;;;;6.32;4.60;;;;;;;29.95;43.62;101601.56;5080558;28;20084;-86
2023/07/08 11:06:08;;;;;;;6.20;4.75;;;;;;;29.90;46.80;101605.16;5059286;28;20029;-85
2023/07/08 11:08:47;;;;;;;5.10;4.07;;;;;;;29.95;47.20;101607.34;5062415;28;20052;-85
2023/07/08 11:11:27;;;;;;;7.88;4.97;;;;;;;30.54;43.87;101601.53;5063373;28;20431;-85
2023/07/08 11:13:58;;;;;;;8.07;5.20;;;;;;;30.75;39.06;101604.47;5061867;28;20429;-85
2023/07/08 11:16:41;;;;;;;5.90;4.70;;;;;;;30.44;39.51;101597.16;5078517;28;20024;-85
2023/07/08 11:19:26;;;;;;;;;;;;;;;30.78;39.73;101603.44;5080748;28;20463;-85
2023/07/08 11:21:58;;;;;;;8.02;5.20;;;;;;;30.82;38.83;101598.25;5055702;28;20323;-85
2023/07/08 11:24:32;;;;;;;7.40;5.50;;;;;;;31.08;36.87;101606.28;5060743;28;20070;-85
2023/07/08 11:27:26;;;;;;;7.03;4.85;;;;;;;30.96;37.92;101603.22;5076227;28;20028;-85
2023/07/08 11:29:56;;;;;;;5.65;4.72;;;;;;;31.13;37.35;101599.75;5055566;28;20531;-85
2023/07/08 11:32:26;;;;;;;11.05;5.40;;;;;;;31.19;37.26;101589.84;5053574;28;20453;-85
2023/07/08 11:34:53;;;;;;;9.18;4.88;;;;;;;31.39;36.12;101594.84;5058712;28;20102;-85